Time;durP1;ratioP1;P1;durP2;ratioP2;P2;SDS_P1;SDS_P2;PMS_P1;PMS_P2;Temp;Humidity;BMP_temperature;BMP_pressure;BME280_temperature;BME280_humidity;BME280_pressure;Samples;Min_cycle;Max_cycle;Signal;HPM_P1;HPM_P2
2021/06/18 00:01:30;;;;;;;5.03;1.40;;;;;;;15.09;54.15;99358.34;5071535;28;20052;-80
2021/06/18 00:04:10;;;;;;;3.63;1.30;;;;;;;15.13;54.08;99357.06;5028097;28;20431;-80
2021/06/18 00:06:37;;;;;;;1.80;1.20;;;;;;;14.99;54.62;99346.78;5039348;28;20123;-80
2021/06/18 00:09:03;;;;;;;3.20;1.40;;;;;;;15.00;55.01;99360.09;5038770;28;20062;-80
2021/06/18 00:11:29;;;;;;;2.78;1.92;;;;;;;15.07;54.62;99360.34;5038720;28;20093;-83
2021/06/18 00:13:55;;;;;;;1.42;1.00;;;;;;;15.05;54.76;99367.75;5055407;28;20047;-81
2021/06/18 00:16:22;;;;;;;7.20;1.50;;;;;;;14.95;55.01;99372.31;5071781;28;20108;-79
2021/06/18 00:18:48;;;;;;;2.78;1.20;;;;;;;14.82;55.17;99359.22;5055735;28;20051;-80
2021/06/18 00:21:14;;;;;;;1.20;1.02;;;;;;;15.03;54.63;99370.56;5021804;28;20086;-79
2021/06/18 00:23:39;;;;;;;1.42;1.10;;;;;;;15.07;54.66;99376.50;5022005;28;20044;-79
2021/06/18 00:26:05;;;;;;;6.88;1.35;;;;;;;15.16;54.52;99375.59;5041337;28;20044;-81
2021/06/18 00:28:32;;;;;;;1.70;1.20;;;;;;;15.15;54.65;99373.03;5042084;28;20601;-79
2021/06/18 00:31:07;;;;;;;6.40;1.42;;;;;;;15.10;54.99;99383.44;5059473;28;20040;-79
2021/06/18 00:33:33;;;;;;;2.35;1.80;;;;;;;15.10;54.69;99386.97;5058018;28;20044;-79
2021/06/18 00:35:59;;;;;;;3.85;1.20;;;;;;;14.96;55.25;99390.16;5041602;28;20084;-79
2021/06/18 00:38:25;;;;;;;6.65;1.10;;;;;;;14.90;55.19;99377.31;5025058;28;20066;-79
2021/06/18 00:40:51;;;;;;;1.90;0.98;;;;;;;15.01;55.45;99390.56;5025530;28;20040;-79
2021/06/18 00:43:19;;;;;;;5.65;2.67;;;;;;;15.04;54.79;99396.50;5042189;28;20098;-79
2021/06/18 00:45:45;;;;;;;3.63;1.20;;;;;;;15.03;54.73;99385.88;5076454;28;20041;-80
2021/06/18 00:48:11;;;;;;;1.00;1.00;;;;;;;15.01;55.54;99401.34;5058820;28;20193;-81
2021/06/18 00:50:37;;;;;;;4.70;1.98;;;;;;;15.00;55.15;99413.09;5009081;28;20074;-81
2021/06/18 00:53:03;;;;;;;4.25;1.17;;;;;;;14.98;55.02;99405.16;5058130;28;20056;-81
2021/06/18 00:55:29;;;;;;;9.52;1.50;;;;;;;14.93;55.35;99411.97;5057953;28;20063;-80
2021/06/18 00:57:55;;;;;;;3.28;1.30;;;;;;;14.91;55.89;99424.75;5024850;28;20069;-79
2021/06/18 01:00:21;;;;;;;3.50;1.13;;;;;;;14.91;55.81;99430.13;5057874;28;20411;-79
2021/06/18 01:02:47;;;;;;;1.73;0.93;;;;;;;14.76;56.12;99419.84;5040982;28;20044;-80
2021/06/18 01:05:14;;;;;;;1.55;1.20;;;;;;;14.79;56.12;99422.25;5041245;28;20052;-78
2021/06/18 01:07:59;;;;;;;1.80;1.17;;;;;;;14.88;56.20;99438.50;5057218;28;20048;-79
2021/06/18 01:10:39;;;;;;;3.65;2.55;;;;;;;14.88;56.38;99425.91;5057750;28;20041;-78
2021/06/18 01:13:27;;;;;;;1.20;1.10;;;;;;;14.95;56.34;99431.53;5025150;28;20047;-78
2021/06/18 01:16:16;;;;;;;1.15;1.00;;;;;;;14.94;55.82;99427.16;5056984;28;20135;-77
2021/06/18 01:18:45;;;;;;;1.30;1.17;;;;;;;14.99;56.03;99432.94;5059695;28;20052;-80
2021/06/18 01:21:22;;;;;;;3.88;1.30;;;;;;;15.04;55.76;99438.72;5040530;28;20090;-77
2021/06/18 01:23:54;;;;;;;2.95;1.10;;;;;;;15.06;55.79;99423.28;5026388;28;20040;-79
2021/06/18 01:26:24;;;;;;;1.00;0.80;;;;;;;15.06;56.04;99437.56;5042020;28;20462;-79
2021/06/18 01:28:51;;;;;;;;;;;;;;;15.07;55.60;99441.94;5043006;28;20450;-76
2021/06/18 01:31:28;;;;;;;4.43;1.10;;;;;;;15.04;55.92;99441.41;5058903;28;19916;-78
2021/06/18 01:34:17;;;;;;;3.53;1.20;;;;;;;15.01;55.85;99437.19;5024398;28;20040;-80
2021/06/18 01:36:47;;;;;;;;;;;;;;;15.09;55.79;99454.44;5026360;28;20040;-78
2021/06/18 01:39:12;;;;;;;1.88;1.10;;;;;;;15.13;55.57;99453.97;5056970;28;19961;-82
2021/06/18 01:41:39;;;;;;;1.30;1.20;;;;;;;15.23;55.29;99452.09;5040646;28;20044;-79
2021/06/18 01:44:05;;;;;;;2.40;1.20;;;;;;;15.16;55.56;99434.00;5023824;28;20044;-79
2021/06/18 01:46:33;;;;;;;1.27;1.10;;;;;;;15.17;55.30;99431.16;5040122;28;20090;-80
2021/06/18 01:49:01;;;;;;;2.67;1.00;;;;;;;15.43;54.97;99449.28;5040048;28;20533;-79
2021/06/18 01:51:27;;;;;;;1.77;1.00;;;;;;;15.44;54.55;99449.13;5023489;28;20047;-81
2021/06/18 01:53:54;;;;;;;3.60;1.17;;;;;;;15.50;54.81;99453.06;5023345;28;20411;-81
2021/06/18 01:56:20;;;;;;;2.80;0.95;;;;;;;15.46;55.04;99457.06;5056601;28;20059;-81
2021/06/18 01:58:50;;;;;;;1.63;1.52;;;;;;;15.55;54.94;99457.00;5056406;28;20461;-80
2021/06/18 02:01:16;;;;;;;4.07;1.27;;;;;;;15.61;54.84;99455.56;5056919;28;20052;-80
2021/06/18 02:03:44;;;;;;;5.93;1.15;;;;;;;15.66;54.90;99458.66;5059326;28;20067;-81
2021/06/18 02:06:10;;;;;;;2.63;1.17;;;;;;;15.68;54.84;99467.47;5060231;28;20044;-80
2021/06/18 02:08:36;;;;;;;2.85;0.90;;;;;;;15.71;54.49;99472.50;5027291;28;20421;-79
2021/06/18 02:11:03;;;;;;;5.05;1.33;;;;;;;15.77;53.64;99474.63;5060569;28;20040;-80
2021/06/18 02:13:30;;;;;;;1.67;1.00;;;;;;;15.68;54.26;99482.75;5043579;28;20093;-80
2021/06/18 02:15:56;;;;;;;6.03;1.00;;;;;;;15.69;54.03;99477.22;5027365;28;20044;-81
2021/06/18 02:18:25;;;;;;;3.80;0.98;;;;;;;15.73;53.84;99486.69;5027720;28;20048;-81
2021/06/18 02:20:53;;;;;;;4.68;0.85;;;;;;;15.83;53.74;99485.78;5043666;28;20055;-80
2021/06/18 02:23:18;;;;;;;2.05;1.13;;;;;;;15.86;53.36;99477.38;5043485;28;20047;-80
2021/06/18 02:25:44;;;;;;;4.82;1.10;;;;;;;15.85;53.48;99483.78;5042880;28;20039;-80
2021/06/18 02:28:11;;;;;;;3.17;1.30;;;;;;;15.82;53.66;99484.94;5059379;28;20533;-81
2021/06/18 02:30:38;;;;;;;2.47;1.40;;;;;;;15.96;53.20;99480.88;5043354;28;20048;-80
2021/06/18 02:33:10;;;;;;;1.30;1.20;;;;;;;16.01;53.18;99490.16;5042998;28;20364;-79
2021/06/18 02:35:36;;;;;;;2.47;1.20;;;;;;;16.07;53.27;99490.56;5061940;28;20144;-80
2021/06/18 02:38:02;;;;;;;2.38;0.90;;;;;;;16.10;53.35;99499.22;5030413;28;20506;-78
2021/06/18 02:40:28;;;;;;;4.78;1.17;;;;;;;16.14;53.29;99488.97;5077048;28;20439;-80
2021/06/18 02:42:54;;;;;;;2.35;1.05;;;;;;;16.17;53.45;99504.81;5060105;28;20045;-81
2021/06/18 02:45:20;;;;;;;2.30;1.00;;;;;;;16.10;53.59;99501.91;5059797;28;20540;-79
2021/06/18 02:48:02;;;;;;;3.60;1.10;;;;;;;16.15;53.87;99480.69;5063342;28;20046;-82
2021/06/18 02:50:46;;;;;;;4.13;1.40;;;;;;;16.36;53.13;99499.28;5032941;28;20044;-80
2021/06/18 02:53:34;;;;;;;4.32;1.15;;;;;;;16.43;53.00;99499.47;5081184;28;20052;-79
2021/06/18 02:56:20;;;;;;;4.03;1.10;;;;;;;16.31;52.88;99490.78;5060400;28;20090;-81
2021/06/18 02:59:06;;;;;;;6.93;1.27;;;;;;;16.30;53.06;99517.91;5062608;28;20071;-81
2021/06/18 03:01:35;;;;;;;3.45;1.20;;;;;;;16.27;52.99;99516.38;5062454;28;20040;-82
2021/06/18 03:04:01;;;;;;;1.77;0.90;;;;;;;16.36;53.16;99511.88;5043726;28;20094;-81
2021/06/18 03:06:28;;;;;;;3.85;1.00;;;;;;;16.26;53.26;99520.91;5042673;28;20083;-81
2021/06/18 03:08:57;;;;;;;4.68;1.17;;;;;;;16.29;53.55;99518.94;5058733;28;20418;-81
2021/06/18 03:11:25;;;;;;;;;;;;;;;16.23;53.88;99504.19;5059521;28;20036;-81
2021/06/18 03:13:53;;;;;;;1.00;1.00;;;;;;;16.36;53.46;99525.38;5059153;28;20366;-80
2021/06/18 03:16:19;;;;;;;1.80;1.00;;;;;;;16.46;53.52;99528.84;5042306;28;20054;-81
2021/06/18 03:18:45;;;;;;;4.82;1.00;;;;;;;16.48;53.54;99507.97;5075970;28;20070;-81
2021/06/18 03:21:11;;;;;;;6.03;1.40;;;;;;;16.67;53.39;99526.66;5058874;28;20044;-88
2021/06/18 03:23:37;;;;;;;7.45;1.30;;;;;;;16.78;52.89;99530.16;5059283;28;20059;-78
2021/06/18 03:26:04;;;;;;;4.18;1.27;;;;;;;16.73;52.83;99528.75;5008917;28;20044;-78
2021/06/18 03:28:30;;;;;;;1.17;1.08;;;;;;;16.86;52.21;99527.50;5038493;28;20043;-79
2021/06/18 03:30:56;;;;;;;10.02;1.77;;;;;;;16.90;52.20;99539.69;5025353;28;20040;-80
2021/06/18 03:33:22;;;;;;;3.63;1.10;;;;;;;16.81;52.45;99551.41;5041907;28;20068;-77
2021/06/18 03:35:48;;;;;;;3.38;1.48;;;;;;;16.75;52.58;99548.34;5058741;28;20056;-78
2021/06/18 03:38:15;;;;;;;3.28;1.10;;;;;;;16.69;52.67;99537.28;5025209;28;20462;-78
2021/06/18 03:40:41;;;;;;;6.68;1.08;;;;;;;16.75;53.15;99553.75;5042299;28;20051;-78
2021/06/18 03:43:08;;;;;;;4.47;1.08;;;;;;;16.90;52.57;99561.28;5042011;28;20123;-80
2021/06/18 03:45:43;;;;;;;1.20;1.13;;;;;;;16.71;53.11;99552.31;5043705;28;20075;-80
2021/06/18 03:48:13;;;;;;;5.95;1.25;;;;;;;16.92;52.74;99570.88;5025970;28;20109;-80
2021/06/18 03:50:39;;;;;;;1.98;1.08;;;;;;;17.06;52.81;99569.47;5026897;28;20040;-79
2021/06/18 03:53:07;;;;;;;3.10;1.20;;;;;;;16.97;53.00;99557.78;5043612;28;20066;-86
2021/06/18 03:55:33;;;;;;;2.00;1.10;;;;;;;17.16;52.83;99572.94;5010290;28;20039;-83
2021/06/18 03:58:00;;;;;;;3.60;1.10;;;;;;;17.18;52.70;99572.75;5093875;28;20040;-78
2021/06/18 04:00:26;;;;;;;1.90;1.33;;;;;;;17.25;52.76;99565.72;5031905;28;20051;-77
2021/06/18 04:02:52;;;;;;;2.05;1.10;;;;;;;17.39;52.80;99577.78;5045895;28;20039;-78
2021/06/18 04:05:23;;;;;;;1.98;1.27;;;;;;;17.51;53.11;99575.66;5063381;28;20581;-82
2021/06/18 04:07:49;;;;;;;2.55;1.02;;;;;;;17.64;52.32;99584.13;5030268;28;20036;-84
2021/06/18 04:10:16;;;;;;;2.35;1.10;;;;;;;17.79;51.02;99582.56;5029477;28;20093;-77
2021/06/18 04:12:42;;;;;;;3.08;1.10;;;;;;;17.70;51.40;99580.78;5062401;28;20074;-84
2021/06/18 04:15:10;;;;;;;3.95;1.55;;;;;;;17.70;51.13;99595.16;5062740;28;20064;-80
2021/06/18 04:17:36;;;;;;;3.47;1.50;;;;;;;17.79;51.45;99589.81;5078751;28;20044;-77
2021/06/18 04:20:03;;;;;;;1.75;1.35;;;;;;;17.85;51.23;99589.16;5028798;28;20040;-75
2021/06/18 04:22:32;;;;;;;2.75;0.88;;;;;;;17.90;50.69;99589.50;5045435;28;20122;-76
2021/06/18 04:24:59;;;;;;;3.85;1.05;;;;;;;18.04;50.65;99588.03;5039736;28;20033;-77
2021/06/18 04:27:25;;;;;;;3.80;1.10;;;;;;;18.23;50.64;99603.16;5058067;28;20473;-77
2021/06/18 04:29:51;;;;;;;4.43;1.30;;;;;;;18.06;50.10;99581.47;5025528;28;20530;-76
2021/06/18 04:32:18;;;;;;;2.17;1.20;;;;;;;18.09;50.56;99589.25;5041721;28;20036;-79
2021/06/18 04:34:44;;;;;;;4.10;1.33;;;;;;;18.05;50.42;99590.56;5057992;28;20055;-78
2021/06/18 04:37:10;;;;;;;5.35;1.52;;;;;;;17.95;50.86;99579.91;5057145;28;20063;-76
2021/06/18 04:39:36;;;;;;;6.90;1.08;;;;;;;18.27;50.42;99578.28;5075841;28;20037;-77
2021/06/18 04:42:04;;;;;;;1.48;1.02;;;;;;;18.36;49.84;99571.06;5041629;28;20044;-77
2021/06/18 04:44:30;;;;;;;5.18;1.00;;;;;;;18.44;49.48;99590.00;5058989;28;20089;-77
2021/06/18 04:46:57;;;;;;;1.05;1.00;;;;;;;18.24;49.78;99577.78;5075608;28;20117;-76
2021/06/18 04:49:23;;;;;;;5.68;1.00;;;;;;;18.37;49.66;99588.97;5057721;28;20127;-76
2021/06/18 04:51:49;;;;;;;2.47;1.10;;;;;;;18.36;49.72;99587.28;5008599;28;20396;-80
2021/06/18 04:54:15;;;;;;;0.77;0.70;;;;;;;18.18;49.37;99590.13;5044135;28;20098;-77
2021/06/18 04:56:42;;;;;;;1.08;1.00;;;;;;;18.23;49.11;99597.72;5043937;28;20052;-78
2021/06/18 04:59:08;;;;;;;3.70;1.00;;;;;;;18.37;49.39;99592.53;5043044;28;20140;-78
2021/06/18 05:01:34;;;;;;;4.85;1.15;;;;;;;18.43;49.02;99604.56;5042891;28;20059;-76
2021/06/18 05:04:00;;;;;;;5.78;0.90;;;;;;;18.49;49.67;99606.56;5025555;28;20075;-77
2021/06/18 05:06:26;;;;;;;5.43;1.20;;;;;;;18.56;49.00;99583.25;5023990;28;20127;-77
2021/06/18 05:08:52;;;;;;;1.15;0.90;;;;;;;18.69;49.30;99583.59;5024186;28;20179;-78
2021/06/18 05:11:23;;;;;;;1.00;0.98;;;;;;;18.74;48.68;99584.97;4990650;28;20040;-77
2021/06/18 05:13:50;;;;;;;1.77;1.00;;;;;;;19.15;48.04;99597.47;5026506;28;20040;-76
2021/06/18 05:16:16;;;;;;;2.67;1.25;;;;;;;19.00;48.56;99601.06;5040147;28;20040;-75
2021/06/18 05:18:42;;;;;;;2.58;1.20;;;;;;;19.02;47.79;99599.84;5040160;28;20186;-74
2021/06/18 05:21:08;;;;;;;1.77;1.10;;;;;;;19.25;47.50;99616.25;5039068;28;20041;-76
2021/06/18 05:23:34;;;;;;;1.48;0.90;;;;;;;19.16;46.53;99601.88;5007625;28;20033;-76
2021/06/18 05:26:00;;;;;;;2.78;0.93;;;;;;;19.38;46.07;99580.50;5055399;28;20684;-78
2021/06/18 05:28:26;;;;;;;3.47;0.95;;;;;;;19.48;46.48;99618.22;5022544;28;20068;-76
2021/06/18 05:30:52;;;;;;;10.80;1.70;;;;;;;19.39;46.02;99606.56;5021795;28;20044;-75
2021/06/18 05:33:18;;;;;;;7.47;1.20;;;;;;;19.62;46.06;99602.13;5040206;28;20128;-76
2021/06/18 05:35:45;;;;;;;2.17;0.90;;;;;;;19.57;45.67;99607.19;5023491;28;20065;-77
2021/06/18 05:38:12;;;;;;;2.33;1.02;;;;;;;19.70;45.20;99605.81;5040911;28;20053;-78
2021/06/18 05:40:42;;;;;;;4.32;0.93;;;;;;;19.53;45.14;99603.16;5031946;28;20047;-78
2021/06/18 05:43:09;;;;;;;3.88;1.13;;;;;;;19.60;45.52;99603.31;5035409;28;20376;-76
2021/06/18 05:45:36;;;;;;;3.03;1.10;;;;;;;19.78;45.78;99600.38;5039788;28;20044;-76
2021/06/18 05:48:04;;;;;;;4.40;0.90;;;;;;;19.95;44.99;99584.88;5023127;28;20550;-76
2021/06/18 05:50:30;;;;;;;3.35;0.77;;;;;;;20.42;44.40;99598.31;5039860;28;20461;-76
2021/06/18 05:52:56;;;;;;;8.55;1.10;;;;;;;20.67;44.06;99611.78;5039835;28;20041;-78
2021/06/18 05:55:22;;;;;;;2.85;0.93;;;;;;;20.55;43.03;99589.63;5040376;28;20044;-78
2021/06/18 05:57:54;;;;;;;1.73;1.20;;;;;;;20.02;43.47;99607.56;5024587;28;20059;-77
2021/06/18 06:00:20;;;;;;;1.70;0.65;;;;;;;19.89;44.36;99602.69;5056513;28;20040;-77
2021/06/18 06:02:46;;;;;;;4.80;1.17;;;;;;;19.88;44.45;99609.16;5040255;28;20041;-78
2021/06/18 06:05:13;;;;;;;6.70;1.58;;;;;;;20.20;43.65;99608.16;5022771;28;20064;-79
2021/06/18 06:07:48;;;;;;;7.80;1.13;;;;;;;20.33;42.98;99610.28;5039078;28;20109;-75
2021/06/18 06:10:15;;;;;;;0.75;0.65;;;;;;;20.28;42.72;99609.97;5006797;28;20040;-75
2021/06/18 06:12:42;;;;;;;2.45;1.15;;;;;;;20.16;43.50;99611.38;5022549;28;20523;-76
2021/06/18 06:15:08;;;;;;;2.25;0.80;;;;;;;20.33;43.30;99594.81;5038637;28;20060;-76
2021/06/18 06:17:34;;;;;;;4.10;0.90;;;;;;;20.40;42.75;99594.97;5055782;28;20552;-77
2021/06/18 06:20:00;;;;;;;4.68;1.02;;;;;;;20.57;42.30;99617.44;5055807;28;20127;-76
2021/06/18 06:22:26;;;;;;;1.65;0.88;;;;;;;20.39;42.68;99623.16;5055053;28;20036;-77
2021/06/18 06:24:52;;;;;;;1.95;0.90;;;;;;;20.33;43.16;99611.13;5007138;28;20051;-76
2021/06/18 06:27:19;;;;;;;1.00;0.75;;;;;;;20.32;43.29;99603.16;5022896;28;20040;-75
2021/06/18 06:29:47;;;;;;;5.32;0.90;;;;;;;20.54;42.69;99607.81;5040338;28;20040;-77
2021/06/18 06:32:13;;;;;;;5.43;0.80;;;;;;;20.33;42.45;99626.56;5055464;28;20503;-76
2021/06/18 06:34:39;;;;;;;4.55;0.93;;;;;;;19.92;43.10;99606.94;5038884;28;20124;-80
2021/06/18 06:37:05;;;;;;;8.82;0.90;;;;;;;20.13;42.62;99612.59;5038494;28;20142;-78
2021/06/18 06:39:31;;;;;;;2.70;1.00;;;;;;;20.45;42.09;99613.41;5038654;28;20527;-78
2021/06/18 06:41:58;;;;;;;6.65;0.80;;;;;;;20.71;42.23;99602.22;5038739;28;20044;-77
2021/06/18 06:44:24;;;;;;;2.17;0.90;;;;;;;21.26;41.00;99617.38;5038751;28;20127;-77
2021/06/18 06:46:50;;;;;;;2.30;1.02;;;;;;;20.94;40.99;99613.91;5055355;28;20140;-78
2021/06/18 06:49:16;;;;;;;2.45;0.75;;;;;;;21.19;41.28;99603.69;5022027;28;20127;-75
2021/06/18 06:51:42;;;;;;;2.53;0.85;;;;;;;21.73;39.78;99600.72;5055343;28;20105;-75
2021/06/18 06:54:08;;;;;;;0.60;0.60;;;;;;;21.79;39.97;99615.47;5006015;28;20438;-77
2021/06/18 06:56:36;;;;;;;3.35;0.82;;;;;;;21.27;40.30;99638.09;5021959;28;20143;-78
2021/06/18 06:59:02;;;;;;;4.53;1.05;;;;;;;20.68;41.55;99636.03;5038216;28;20142;-77
2021/06/18 07:01:29;;;;;;;5.20;0.93;;;;;;;20.64;41.56;99634.69;5074843;28;20148;-79
2021/06/18 07:03:56;;;;;;;3.47;0.90;;;;;;;20.23;41.92;99637.63;5051203;28;20106;-78
2021/06/18 07:06:22;;;;;;;1.15;0.80;;;;;;;20.04;42.60;99619.91;5001701;28;20484;-78
2021/06/18 07:08:48;;;;;;;1.58;1.20;;;;;;;20.30;42.00;99632.34;5034553;28;20551;-76
2021/06/18 07:11:14;;;;;;;1.73;0.90;;;;;;;20.72;41.33;99633.78;5001431;28;20059;-77
2021/06/18 07:13:40;;;;;;;1.13;0.80;;;;;;;20.87;41.54;99607.53;5034769;28;20106;-77
2021/06/18 07:16:07;;;;;;;4.10;1.10;;;;;;;21.08;41.43;99634.03;5034289;28;20052;-77
2021/06/18 07:18:35;;;;;;;1.70;0.75;;;;;;;21.25;40.95;99615.69;5001592;28;20410;-76
2021/06/18 07:21:01;;;;;;;16.80;1.38;;;;;;;21.35;40.90;99632.59;5017857;28;20491;-78
2021/06/18 07:23:28;;;;;;;3.60;0.90;;;;;;;21.08;41.15;99629.44;5034566;28;20052;-78
2021/06/18 07:25:54;;;;;;;0.95;0.80;;;;;;;20.47;41.60;99652.97;5034310;28;20044;-78
2021/06/18 07:28:20;;;;;;;3.40;1.10;;;;;;;20.66;41.79;99642.69;4984866;28;20448;-78
2021/06/18 07:30:48;;;;;;;1.48;1.00;;;;;;;20.99;41.11;99648.72;5001108;28;20041;-77
2021/06/18 07:33:15;;;;;;;2.57;0.77;;;;;;;21.09;41.34;99608.53;5001956;28;20531;-76
2021/06/18 07:35:42;;;;;;;0.70;0.70;;;;;;;21.18;41.11;99623.75;5006367;28;20947;-77
2021/06/18 07:38:07;;;;;;;3.72;1.00;;;;;;;21.06;41.36;99617.91;5005806;28;20499;-77
2021/06/18 07:40:33;;;;;;;3.72;0.90;;;;;;;21.53;40.52;99624.94;5022547;28;20075;-78
2021/06/18 07:43:00;;;;;;;2.55;0.80;;;;;;;22.09;40.57;99639.94;5053878;28;20052;-77
2021/06/18 07:45:26;;;;;;;7.63;1.63;;;;;;;22.01;39.65;99647.19;5038228;28;20419;-78
2021/06/18 07:47:53;;;;;;;4.00;0.60;;;;;;;22.02;38.93;99634.41;5024508;28;20067;-76
2021/06/18 07:50:20;;;;;;;6.78;0.88;;;;;;;22.24;38.07;99632.63;5041798;28;20044;-77
2021/06/18 07:52:46;;;;;;;4.28;1.00;;;;;;;22.27;37.96;99643.97;5033751;28;20044;-75
2021/06/18 07:55:17;;;;;;;8.80;1.50;;;;;;;22.42;38.14;99624.88;5038344;28;20131;-79
2021/06/18 07:57:47;;;;;;;3.05;0.80;;;;;;;22.23;37.85;99636.41;5006112;28;20527;-77
2021/06/18 08:00:13;;;;;;;11.23;0.93;;;;;;;22.30;38.26;99638.16;5037730;28;20047;-78
2021/06/18 08:02:40;;;;;;;1.13;0.80;;;;;;;22.67;37.68;99643.56;5005350;28;20087;-79
2021/06/18 08:05:10;;;;;;;3.70;0.80;;;;;;;22.02;38.84;99646.13;5020945;28;20065;-77
2021/06/18 08:07:36;;;;;;;3.50;0.90;;;;;;;21.60;39.50;99648.69;5038576;28;20495;-78
2021/06/18 08:10:03;;;;;;;5.05;1.52;;;;;;;21.79;39.68;99639.97;5054472;28;20069;-78
2021/06/18 08:12:30;;;;;;;5.53;2.08;;;;;;;22.41;38.91;99644.97;5053950;28;20055;-80
2021/06/18 08:14:56;;;;;;;2.80;1.02;;;;;;;22.98;38.32;99630.50;5054061;28;20045;-77
2021/06/18 08:17:23;;;;;;;1.10;0.80;;;;;;;23.46;36.98;99627.94;5037962;28;20052;-78
2021/06/18 08:19:49;;;;;;;7.22;1.05;;;;;;;23.67;36.56;99645.34;5004933;28;20522;-80
2021/06/18 08:22:15;;;;;;;1.40;0.80;;;;;;;23.69;35.41;99632.31;5020929;28;20074;-76
2021/06/18 08:24:41;;;;;;;2.72;0.70;;;;;;;23.27;34.77;99632.19;5037866;28;20547;-77
2021/06/18 08:27:07;;;;;;;2.08;0.80;;;;;;;23.36;34.67;99638.38;5020049;28;20041;-78
2021/06/18 08:29:33;;;;;;;2.53;0.60;;;;;;;23.66;35.04;99635.44;5004731;28;20064;-76
2021/06/18 08:31:59;;;;;;;4.13;0.80;;;;;;;23.93;35.76;99639.19;5005061;28;20041;-76
2021/06/18 08:34:25;;;;;;;4.78;0.90;;;;;;;23.68;35.92;99620.56;5037732;28;20091;-75
2021/06/18 08:36:52;;;;;;;7.00;1.27;;;;;;;23.46;36.19;99627.94;5029713;28;20105;-77
2021/06/18 08:39:19;;;;;;;3.20;0.85;;;;;;;23.89;35.90;99643.38;5022989;28;20472;-76
2021/06/18 08:41:44;;;;;;;3.95;0.80;;;;;;;24.17;34.95;99640.56;5020068;28;20052;-78
2021/06/18 08:44:10;;;;;;;4.18;0.60;;;;;;;24.30;33.51;99628.81;5004312;28;20045;-77
2021/06/18 08:46:36;;;;;;;8.27;1.23;;;;;;;23.91;33.09;99633.91;5003803;28;20508;-82
2021/06/18 08:49:02;;;;;;;4.20;0.68;;;;;;;23.94;33.98;99660.81;5037435;28;20053;-77
2021/06/18 08:51:29;;;;;;;1.60;0.50;;;;;;;23.20;35.64;99683.13;5005080;28;20135;-77
2021/06/18 08:53:54;;;;;;;2.35;0.65;;;;;;;22.93;35.91;99668.41;5056637;28;20043;-79
2021/06/18 08:56:20;;;;;;;3.45;0.60;;;;;;;22.54;36.34;99650.56;5003895;28;20045;-76
2021/06/18 08:58:46;;;;;;;3.47;0.73;;;;;;;22.75;35.64;99660.66;5037546;28;20414;-81
2021/06/18 09:01:13;;;;;;;1.58;0.65;;;;;;;22.87;34.55;99655.53;5037141;28;20094;-79
2021/06/18 09:03:44;;;;;;;7.35;0.80;;;;;;;23.22;34.23;99664.69;5006464;28;20056;-78
2021/06/18 09:06:25;;;;;;;2.90;0.88;;;;;;;23.40;34.29;99650.56;5024253;28;20044;-77
2021/06/18 09:09:15;;;;;;;5.68;0.88;;;;;;;23.65;34.47;99648.22;5039684;28;20098;-78
2021/06/18 09:11:58;;;;;;;3.03;0.90;;;;;;;23.80;33.79;99653.59;5040110;28;20040;-78
2021/06/18 09:14:29;;;;;;;1.27;0.70;;;;;;;24.26;33.44;99650.28;5025596;28;20143;-79
2021/06/18 09:17:13;;;;;;;2.38;0.50;;;;;;;24.11;33.28;99652.28;5040557;28;20045;-79
2021/06/18 09:19:42;;;;;;;1.50;0.60;;;;;;;23.86;34.44;99646.50;5024770;28;20101;-79
2021/06/18 09:22:14;;;;;;;6.47;0.82;;;;;;;23.74;34.80;99657.97;5057036;28;20048;-78
2021/06/18 09:24:42;;;;;;;4.68;0.93;;;;;;;23.98;33.67;99642.13;4992503;28;20036;-79
2021/06/18 09:27:09;;;;;;;0.95;0.70;;;;;;;24.07;32.94;99664.66;5040231;28;20131;-78
2021/06/18 09:29:35;;;;;;;3.83;0.60;;;;;;;24.20;33.38;99656.53;5057388;28;20557;-79
2021/06/18 09:32:04;;;;;;;4.25;0.80;;;;;;;23.95;34.12;99670.69;5023739;28;20048;-78
2021/06/18 09:34:40;;;;;;;3.70;1.05;;;;;;;24.25;33.31;99634.91;5040874;28;20052;-78
2021/06/18 09:37:19;;;;;;;0.93;0.60;;;;;;;24.51;32.92;99647.84;5023728;28;20040;-78
2021/06/18 09:40:04;;;;;;;3.38;0.60;;;;;;;24.70;32.92;99660.72;5024429;28;20051;-78
2021/06/18 09:42:31;;;;;;;0.82;0.60;;;;;;;24.89;32.75;99655.50;5040544;28;20048;-78
2021/06/18 09:45:08;;;;;;;13.57;1.17;;;;;;;24.91;31.65;99665.19;5048772;28;20048;-76
2021/06/18 09:47:35;;;;;;;1.85;0.95;;;;;;;25.06;31.77;99670.47;5027350;28;20075;-76
2021/06/18 09:50:02;;;;;;;3.55;0.57;;;;;;;25.14;31.81;99658.50;5059612;28;20456;-76
2021/06/18 09:52:29;;;;;;;1.88;0.68;;;;;;;25.30;31.30;99647.13;5043643;28;20122;-76
2021/06/18 09:54:55;;;;;;;5.28;0.60;;;;;;;25.11;30.81;99680.81;5059804;28;20056;-77
2021/06/18 09:57:24;;;;;;;1.75;0.73;;;;;;;24.95;30.87;99655.53;5043551;28;20059;-77
2021/06/18 09:59:53;;;;;;;10.80;2.70;;;;;;;25.48;29.76;99678.50;5044569;28;20044;-78
2021/06/18 10:02:20;;;;;;;3.80;0.93;;;;;;;25.86;29.07;99665.84;5045077;28;20138;-76
2021/06/18 10:04:51;;;;;;;4.20;0.90;;;;;;;26.02;28.90;99670.00;5049046;28;20056;-77
2021/06/18 10:07:18;;;;;;;4.93;0.90;;;;;;;26.11;29.54;99666.00;5009053;28;20041;-77
2021/06/18 10:09:45;;;;;;;2.97;0.60;;;;;;;26.21;29.58;99662.78;5038212;28;20128;-77
2021/06/18 10:12:11;;;;;;;4.20;0.70;;;;;;;26.28;30.46;99660.03;5020909;28;20152;-77
2021/06/18 10:14:37;;;;;;;3.08;0.65;;;;;;;26.39;30.55;99660.19;5037641;28;20086;-79
2021/06/18 10:17:04;;;;;;;2.75;0.60;;;;;;;25.58;30.46;99673.47;5038757;28;20505;-79
2021/06/18 10:19:30;;;;;;;6.38;0.80;;;;;;;25.35;31.18;99660.19;5021403;28;20135;-78
2021/06/18 10:22:08;;;;;;;1.00;0.68;;;;;;;26.28;30.39;99674.56;5021056;28;20045;-78
2021/06/18 10:24:55;;;;;;;8.10;0.50;;;;;;;26.62;29.50;99672.53;5022576;28;20045;-78
2021/06/18 10:27:38;;;;;;;9.25;0.82;;;;;;;27.11;29.58;99657.28;5037430;28;20118;-76
2021/06/18 10:30:36;;;;;;;4.40;0.95;;;;;;;27.07;28.70;99669.72;5039210;28;20063;-77
2021/06/18 10:33:36;;;;;;;1.77;0.93;;;;;;;26.81;28.37;99668.00;5039975;28;20076;-78
2021/06/18 10:36:19;;;;;;;1.95;0.77;;;;;;;26.53;29.22;99662.91;5048241;28;20049;-77
2021/06/18 10:38:47;;;;;;;1.25;0.80;;;;;;;26.38;28.97;99677.69;5054027;28;20093;-77
2021/06/18 10:41:13;;;;;;;4.72;1.02;;;;;;;26.83;28.65;99658.50;5036245;28;20045;-76
2021/06/18 10:43:42;;;;;;;5.82;0.65;;;;;;;26.77;29.08;99686.78;5064575;28;20036;-79
2021/06/18 10:46:18;;;;;;;3.33;0.60;;;;;;;27.13;28.40;99679.84;5019889;28;20037;-78
2021/06/18 10:48:49;;;;;;;3.78;0.80;;;;;;;27.57;27.99;99686.25;5004631;28;20469;-79
2021/06/18 10:51:33;;;;;;;1.95;0.75;;;;;;;27.19;28.00;99689.94;5034116;28;20102;-79
2021/06/18 10:54:30;;;;;;;3.90;0.65;;;;;;;28.11;27.45;99681.09;5053199;28;20094;-79
2021/06/18 10:57:24;;;;;;;5.30;0.90;;;;;;;28.58;25.72;99679.47;5070036;28;20194;-78
2021/06/18 11:00:10;;;;;;;2.38;0.70;;;;;;;28.99;25.56;99672.34;5040219;28;20045;-78
2021/06/18 11:02:38;;;;;;;2.67;0.60;;;;;;;29.44;24.74;99680.09;5051749;28;20460;-79
2021/06/18 11:05:15;;;;;;;1.77;0.60;;;;;;;29.20;25.13;99662.72;5039293;28;20515;-76
2021/06/18 11:07:42;;;;;;;3.22;0.88;;;;;;;28.47;26.39;99672.00;5037448;28;20109;-75
2021/06/18 11:10:12;;;;;;;8.35;1.25;;;;;;;26.91;27.88;99678.50;5022005;28;20189;-78
2021/06/18 11:12:42;;;;;;;2.97;1.05;;;;;;;26.77;28.60;99689.53;5055195;28;20495;-77
2021/06/18 11:15:14;;;;;;;6.60;1.05;;;;;;;27.17;27.80;99674.75;5038434;28;20047;-76
2021/06/18 11:17:48;;;;;;;4.43;0.90;;;;;;;27.90;27.19;99672.22;5054911;28;20117;-79
2021/06/18 11:20:16;;;;;;;5.00;0.82;;;;;;;28.37;26.50;99674.44;5038763;28;20090;-78
2021/06/18 11:23:06;;;;;;;1.58;0.90;;;;;;;28.00;27.00;99690.94;5054620;28;20121;-76
2021/06/18 11:25:32;;;;;;;4.68;1.15;;;;;;;28.31;26.10;99692.69;5037643;28;20055;-76
2021/06/18 11:28:17;;;;;;;3.53;1.05;;;;;;;28.05;27.03;99699.31;5051147;28;20140;-77
2021/06/18 11:31:13;;;;;;;5.50;0.80;;;;;;;27.38;28.23;99715.53;5051237;28;20041;-77
2021/06/18 11:33:44;;;;;;;6.93;0.90;;;;;;;27.68;27.03;99718.44;5018642;28;20044;-78
2021/06/18 11:36:22;;;;;;;3.80;0.90;;;;;;;27.97;27.35;99710.63;5053379;28;20044;-78
2021/06/18 11:38:59;;;;;;;3.10;0.80;;;;;;;26.93;28.85;99709.28;5024431;28;20061;-78
2021/06/18 11:41:27;;;;;;;9.10;1.20;;;;;;;26.19;30.25;99727.09;5021870;28;20047;-78
2021/06/18 11:43:54;;;;;;;;;;;;;;;27.08;29.51;99715.31;5056258;28;20071;-77